createdAt,value
2017-11-05T00:00:04.385Z,84.45
2017-11-05T00:00:44.842Z,84.59
2017-11-05T00:01:25.201Z,84.16
2017-11-05T00:02:05.572Z,84.22
2017-11-05T00:02:45.979Z,84.35
2017-11-05T00:03:26.377Z,84.31
2017-11-05T00:04:06.821Z,83.97
2017-11-05T00:04:47.451Z,84.41
2017-11-05T00:05:27.991Z,84.16
2017-11-05T00:06:08.349Z,84.41
2017-11-05T00:06:48.756Z,84.16
2017-11-05T00:07:29.217Z,83.97
2017-11-05T00:08:09.688Z,83.54
2017-11-05T00:08:50.036Z,84.22
2017-11-05T00:09:30.498Z,84.45
2017-11-05T00:10:10.906Z,84.5
2017-11-05T00:10:51.383Z,84.02
2017-11-05T00:11:31.812Z,85.36
2017-11-05T00:12:12.103Z,84.41
2017-11-05T00:12:52.708Z,84.5
2017-11-05T00:13:33.306Z,84.5
2017-11-05T00:14:13.751Z,84.12
2017-11-05T00:14:54.135Z,84.31
2017-11-05T00:15:34.661Z,84.06
2017-11-05T00:16:15.082Z,84.16
2017-11-05T00:16:55.531Z,84.45
2017-11-05T00:17:35.863Z,84.02
2017-11-05T00:18:16.295Z,84.22
2017-11-05T00:18:56.741Z,84.31
2017-11-05T00:19:37.086Z,85.27
2017-11-05T00:20:17.457Z,85.27
2017-11-05T00:20:57.930Z,85.27
2017-11-05T00:21:38.314Z,85.55
2017-11-05T00:22:18.742Z,85.46
2017-11-05T00:23:00.132Z,85.17
2017-11-05T00:23:40.500Z,85.36
2017-11-05T00:24:20.874Z,85.08
2017-11-05T00:25:01.342Z,85.27
2017-11-05T00:25:41.739Z,85.27
2017-11-05T00:26:22.196Z,84.41
2017-11-05T00:27:02.540Z,85.27
2017-11-05T00:27:42.960Z,85.17
2017-11-05T00:28:23.363Z,85.27
2017-11-05T00:29:03.916Z,85.08
2017-11-05T00:29:44.261Z,85.27
2017-11-05T00:30:24.677Z,84.98
2017-11-05T00:31:05.191Z,85.17
2017-11-05T00:31:45.577Z,85.17
2017-11-05T00:32:25.892Z,84.41
2017-11-05T00:33:06.336Z,84.41
2017-11-05T00:33:46.754Z,84.5
2017-11-05T00:34:27.161Z,84.41
2017-11-05T00:35:07.531Z,84.31
2017-11-05T00:35:47.995Z,84.41
2017-11-05T00:36:28.381Z,84.69
2017-11-05T00:37:08.816Z,84.98
2017-11-05T00:37:49.280Z,84.88
2017-11-05T00:38:29.668Z,85.36
2017-11-05T00:39:10.085Z,85.08
2017-11-05T00:39:50.512Z,85.94
2017-11-05T00:40:31.317Z,86.04
2017-11-05T00:41:11.694Z,86.13
2017-11-05T00:41:52.142Z,85.84
2017-11-05T00:42:32.527Z,86.04
2017-11-05T00:43:12.910Z,85.94
2017-11-05T00:43:53.349Z,86.9
2017-11-05T00:44:33.762Z,86.32
2017-11-05T00:45:14.150Z,87.08
2017-11-05T00:45:54.567Z,86.61
2017-11-05T00:46:35.098Z,86.22
2017-11-05T00:47:15.457Z,86.51
2017-11-05T00:47:55.818Z,87.18
2017-11-05T00:48:36.300Z,87.37
2017-11-05T00:49:16.594Z,87.47
2017-11-05T00:49:57.047Z,87.47
2017-11-05T00:50:37.426Z,87.37
2017-11-05T00:51:17.842Z,87.76
2017-11-05T00:51:58.276Z,87.66
2017-11-05T00:52:38.887Z,87.47
2017-11-05T00:53:19.310Z,87.37
2017-11-05T00:53:59.734Z,87.37
2017-11-05T00:54:40.181Z,86.99
2017-11-05T00:55:20.656Z,87.08
2017-11-05T00:56:00.989Z,87.08
2017-11-05T00:56:41.391Z,86.8
2017-11-05T00:57:21.827Z,86.8
2017-11-05T00:58:02.223Z,87.76
2017-11-05T00:58:42.683Z,87.47
2017-11-05T00:59:23.118Z,87.37
2017-11-05T01:00:03.684Z,87.56
2017-11-05T01:00:44.152Z,87.08
2017-11-05T01:01:24.512Z,87.08
2017-11-05T01:02:05.030Z,86.99
2017-11-05T01:02:45.432Z,87.08
2017-11-05T01:03:25.809Z,86.7
2017-11-05T01:04:06.236Z,86.8
2017-11-05T01:04:46.647Z,86.41
2017-11-05T01:05:27.063Z,86.04
2017-11-05T01:06:07.517Z,85.94
2017-11-05T01:06:48.022Z,86.13
2017-11-05T01:07:28.435Z,85.46
2017-11-05T01:08:08.819Z,85.75
2017-11-05T01:08:49.208Z,86.51
2017-11-05T01:09:29.627Z,86.61
2017-11-05T01:10:10.048Z,86.9
2017-11-05T01:10:50.511Z,87.76
2017-11-05T01:11:30.833Z,87.66
2017-11-05T01:12:11.292Z,87.47
2017-11-05T01:12:51.868Z,88.19
2017-11-05T01:13:32.490Z,87.81
2017-11-05T01:14:12.979Z,88.48
2017-11-05T01:14:53.460Z,89.43
2017-11-05T01:15:33.972Z,89.15
2017-11-05T01:16:14.433Z,89.72
2017-11-05T01:16:54.932Z,89.72
2017-11-05T01:17:35.334Z,90.01
2017-11-05T01:18:15.861Z,89.87
2017-11-05T01:18:58.210Z,90.53
2017-11-05T01:19:38.947Z,90.16
2017-11-05T01:20:19.352Z,90.73
2017-11-05T01:20:59.749Z,90.82
2017-11-05T01:21:40.226Z,90.53
2017-11-05T01:22:20.564Z,91.2
2017-11-05T01:23:01.020Z,91.2
2017-11-05T01:23:41.437Z,92.25
2017-11-05T01:24:21.869Z,92.54
2017-11-05T01:25:02.463Z,92.35
2017-11-05T01:25:42.893Z,92.16
2017-11-05T01:26:23.282Z,92.35
2017-11-05T01:27:03.691Z,92.64
2017-11-05T01:27:44.125Z,92.45
2017-11-05T01:28:24.599Z,92.54
2017-11-05T01:29:05.052Z,92.25
2017-11-05T01:29:45.457Z,92.45
2017-11-05T01:30:25.889Z,92.16
2017-11-05T01:31:06.233Z,91.68
2017-11-05T01:31:46.712Z,91.88
2017-11-05T01:32:27.067Z,92.16
2017-11-05T01:33:07.579Z,91.68
2017-11-05T01:33:48.018Z,92.07
2017-11-05T01:34:28.586Z,91.78
2017-11-05T01:35:09.072Z,91.59
2017-11-05T01:35:49.522Z,92.25
2017-11-05T01:36:29.960Z,92.54
2017-11-05T01:37:10.367Z,92.45
2017-11-05T01:37:50.873Z,92.88
2017-11-05T01:38:31.323Z,92.93
2017-11-05T01:39:11.712Z,93.12
2017-11-05T01:39:51.993Z,93.31
2017-11-05T01:40:32.631Z,93.02
2017-11-05T01:41:13.043Z,93.31
2017-11-05T01:41:53.553Z,93.12
2017-11-05T01:42:34.001Z,93.74
2017-11-05T01:43:14.436Z,93.65
2017-11-05T01:43:54.979Z,92.83
2017-11-05T01:44:35.258Z,93.02
2017-11-05T01:45:15.876Z,93.21
2017-11-05T01:45:56.160Z,93.31
2017-11-05T01:46:36.646Z,92.93
2017-11-05T01:47:16.951Z,92.07
2017-11-05T01:47:57.461Z,92.07
2017-11-05T01:48:37.800Z,92.54
2017-11-05T01:49:18.187Z,92.16
2017-11-05T01:49:58.674Z,92.64
2017-11-05T01:50:39.134Z,92.16
2017-11-05T01:51:19.566Z,91.93
2017-11-05T01:52:00.165Z,92.11
2017-11-05T01:52:40.600Z,91.88
2017-11-05T01:53:21.007Z,92.16
2017-11-05T01:54:01.533Z,91.88
2017-11-05T01:54:41.936Z,91.93
2017-11-05T01:55:22.326Z,92.21
2017-11-05T01:56:02.768Z,91.83
2017-11-05T01:56:43.172Z,91.54
2017-11-05T01:57:23.642Z,91.83
2017-11-05T01:58:03.979Z,92.07
2017-11-05T01:58:44.533Z,91.74
2017-11-05T01:59:24.958Z,91.83
2017-11-05T02:00:05.296Z,92.21
2017-11-05T02:00:45.709Z,92.3
2017-11-05T02:01:26.241Z,91.64
2017-11-05T02:02:06.767Z,91.74
2017-11-05T02:02:47.143Z,91.35
2017-11-05T02:03:27.535Z,91.54
2017-11-05T02:04:08.052Z,92.11
2017-11-05T02:04:48.423Z,92.02
2017-11-05T02:05:28.947Z,92.11
2017-11-05T02:06:09.320Z,92.11
2017-11-05T02:06:49.801Z,92.3
2017-11-05T02:07:30.313Z,91.35
2017-11-05T02:08:10.637Z,92.5
2017-11-05T02:08:51.027Z,92.11
2017-11-05T02:09:31.495Z,91.93
2017-11-05T02:10:11.887Z,91.93
2017-11-05T02:10:52.291Z,92.02
2017-11-05T02:11:32.848Z,92.3
2017-11-05T02:12:13.200Z,91.83
2017-11-05T02:12:53.546Z,92.21
2017-11-05T02:13:34.115Z,92.02
2017-11-05T02:14:14.661Z,92.4
2017-11-05T02:14:55.073Z,92.5
2017-11-05T02:15:35.525Z,91.54
2017-11-05T02:16:16.096Z,91.68
2017-11-05T02:16:56.474Z,91.59
2017-11-05T02:17:36.801Z,91.49
2017-11-05T02:18:17.224Z,92.07
2017-11-05T02:18:57.656Z,91.78
2017-11-05T02:19:38.010Z,91.59
2017-11-05T02:20:18.487Z,91.49
2017-11-05T02:20:58.924Z,92.07
2017-11-05T02:21:39.453Z,91.88
2017-11-05T02:22:19.805Z,91.68
2017-11-05T02:23:00.184Z,91.88
2017-11-05T02:23:40.663Z,91.88
2017-11-05T02:24:21.048Z,91.78
2017-11-05T02:25:01.468Z,91.59
2017-11-05T02:25:41.877Z,91.59
2017-11-05T02:26:22.330Z,91.59
2017-11-05T02:27:02.780Z,91.3
2017-11-05T02:27:43.079Z,91.3
2017-11-05T02:28:23.517Z,91.49
2017-11-05T02:29:03.871Z,91.59
2017-11-05T02:29:44.323Z,91.59
2017-11-05T02:30:24.708Z,91.39
2017-11-05T02:31:05.196Z,91.68
2017-11-05T02:31:45.541Z,91.59
2017-11-05T02:32:25.948Z,91.11
2017-11-05T02:33:06.430Z,91.11
2017-11-05T02:33:46.889Z,91.39
2017-11-05T02:34:27.260Z,91.11
2017-11-05T02:35:07.818Z,90.16
2017-11-05T02:35:48.351Z,90.63
2017-11-05T02:36:28.810Z,90.73
2017-11-05T02:37:09.261Z,90.06
2017-11-05T02:37:49.644Z,90.16
2017-11-05T02:38:30.127Z,90.53
2017-11-05T02:39:10.585Z,90.63
2017-11-05T02:39:50.876Z,89.77
2017-11-05T02:40:31.388Z,89.96
2017-11-05T02:41:11.904Z,89.96
2017-11-05T02:41:52.382Z,90.16
2017-11-05T02:42:32.881Z,90.73
2017-11-05T02:43:13.282Z,89.77
2017-11-05T02:43:53.749Z,89.87
2017-11-05T02:44:34.132Z,90.44
2017-11-05T02:45:14.709Z,91.11
2017-11-05T02:45:55.020Z,90.53
2017-11-05T02:46:35.470Z,90.92
2017-11-05T02:47:15.851Z,90.92
2017-11-05T02:47:56.363Z,90.92
2017-11-05T02:48:36.692Z,90.34
2017-11-05T02:49:17.197Z,90.73
2017-11-05T02:49:57.557Z,90.53
2017-11-05T02:50:37.979Z,91.2
2017-11-05T02:51:18.422Z,90.82
2017-11-05T02:51:58.802Z,90.82
2017-11-05T02:52:39.163Z,90.82
2017-11-05T02:53:19.611Z,91.3
2017-11-05T02:54:00.008Z,91.2
2017-11-05T02:54:40.395Z,90.82
2017-11-05T02:55:20.844Z,91.2
2017-11-05T02:56:01.309Z,90.73
2017-11-05T02:56:41.889Z,90.82
2017-11-05T02:57:22.275Z,90.63
2017-11-05T02:58:02.703Z,90.82
2017-11-05T02:58:43.022Z,90.53
2017-11-05T02:59:23.499Z,90.73
2017-11-05T03:00:03.863Z,90.82
2017-11-05T03:00:44.519Z,91.11
2017-11-05T03:01:24.896Z,91.02
2017-11-05T03:02:05.360Z,90.82
2017-11-05T03:02:45.758Z,90.44
2017-11-05T03:03:26.170Z,90.63
2017-11-05T03:04:06.576Z,90.63
2017-11-05T03:04:46.961Z,90.73
2017-11-05T03:05:27.461Z,90.73
2017-11-05T03:06:07.906Z,90.53
2017-11-05T03:06:48.445Z,89.87
2017-11-05T03:07:28.899Z,90.44
2017-11-05T03:08:09.478Z,90.82
2017-11-05T03:08:49.914Z,90.92
2017-11-05T03:09:30.362Z,90.34
2017-11-05T03:10:10.722Z,90.82
2017-11-05T03:10:51.369Z,90.44
2017-11-05T03:11:31.793Z,90.73
2017-11-05T03:12:12.163Z,90.25
2017-11-05T03:12:52.595Z,89.77
2017-11-05T03:13:33.032Z,90.16
2017-11-05T03:14:13.426Z,89.67
2017-11-05T03:14:53.805Z,89.77
2017-11-05T03:15:34.273Z,90.06
2017-11-05T03:16:14.654Z,89.87
2017-11-05T03:16:55.090Z,90.16
2017-11-05T03:17:35.438Z,89.96
2017-11-05T03:18:15.893Z,90.25
2017-11-05T03:18:56.256Z,90.06
2017-11-05T03:19:36.675Z,89.87
2017-11-05T03:20:17.047Z,89.67
2017-11-05T03:20:57.459Z,90.25
2017-11-05T03:21:37.939Z,90.16
2017-11-05T03:22:18.373Z,89.77
2017-11-05T03:22:58.798Z,90.44
2017-11-05T03:23:39.143Z,90.25
2017-11-05T03:24:19.582Z,90.63
2017-11-05T03:24:59.998Z,89.77
2017-11-05T03:25:40.397Z,89.87
2017-11-05T03:26:20.811Z,89.96
2017-11-05T03:27:01.288Z,89.96
2017-11-05T03:27:41.759Z,89.87
2017-11-05T03:28:22.025Z,89.67
2017-11-05T03:29:02.545Z,89.39
2017-11-05T03:29:42.912Z,89.67
2017-11-05T03:30:23.426Z,89.39
2017-11-05T03:31:03.772Z,89.29
2017-11-05T03:31:44.221Z,89.01
2017-11-05T03:32:24.726Z,89.01
2017-11-05T03:33:05.102Z,89.2
2017-11-05T03:33:45.553Z,89.1
2017-11-05T03:34:26.081Z,88.53
2017-11-05T03:35:06.470Z,88.43
2017-11-05T03:35:46.940Z,89.29
2017-11-05T03:36:27.312Z,89.2
2017-11-05T03:37:07.810Z,88.72
2017-11-05T03:37:48.254Z,89.01
2017-11-05T03:38:28.598Z,89.1
2017-11-05T03:39:08.965Z,89.1
2017-11-05T03:39:49.441Z,89.01
2017-11-05T03:40:29.879Z,88.81
2017-11-05T03:41:10.293Z,89.2
2017-11-05T03:41:50.725Z,89.39
2017-11-05T03:42:31.089Z,89.2
2017-11-05T03:43:11.647Z,89.2
2017-11-05T03:43:52.007Z,88.34
2017-11-05T03:44:32.432Z,89.1
2017-11-05T03:45:12.867Z,88.62
2017-11-05T03:45:53.388Z,89.2
2017-11-05T03:46:33.934Z,89.48
2017-11-05T03:47:14.407Z,88.62
2017-11-05T03:47:54.985Z,88.34
2017-11-05T03:48:35.319Z,88.34
2017-11-05T03:49:15.657Z,88.05
2017-11-05T03:49:56.102Z,88.43
2017-11-05T03:50:36.492Z,88.34
2017-11-05T03:51:16.985Z,88.72
2017-11-05T03:51:57.398Z,88.43
2017-11-05T03:52:37.813Z,88.81
2017-11-05T03:53:18.202Z,88.62
2017-11-05T03:53:58.749Z,88.81
2017-11-05T03:54:39.159Z,88.62
2017-11-05T03:55:19.621Z,89.01
2017-11-05T03:55:59.939Z,88.72
2017-11-05T03:56:40.371Z,88.34
2017-11-05T03:57:20.850Z,88.24
2017-11-05T03:58:01.213Z,88.05
2017-11-05T03:58:41.632Z,88.43
2017-11-05T03:59:22.092Z,88.53
2017-11-05T04:00:02.630Z,87.95
2017-11-05T04:00:42.974Z,87.66
2017-11-05T04:01:23.373Z,87.86
2017-11-05T04:02:03.881Z,87.76
2017-11-05T04:02:44.222Z,87.38
2017-11-05T04:40:28.437Z,92.21
2017-11-05T04:41:18.930Z,92.21
2017-11-05T04:41:58.965Z,92.12
2017-11-05T04:42:39.554Z,92.41
2017-11-05T04:43:20.137Z,92.31
2017-11-05T04:44:00.498Z,92.6
2017-11-05T04:44:40.928Z,92.79
2017-11-05T04:45:22.200Z,92.97
2017-11-05T04:46:02.538Z,92.31
2017-11-05T04:46:42.956Z,92.5
2017-11-05T04:47:23.327Z,92.79
2017-11-05T04:48:03.953Z,93.26
2017-11-05T04:48:44.519Z,93.36
2017-11-05T04:49:24.968Z,93.17
2017-11-05T04:50:05.541Z,93.55
2017-11-05T04:50:46.211Z,93.46
2017-11-05T04:51:26.630Z,93.55
2017-11-05T04:52:07.109Z,93.65
2017-11-05T04:52:48.270Z,92.6
2017-11-05T04:53:28.594Z,92.12
2017-11-05T04:54:09.052Z,92.79
2017-11-05T04:54:49.388Z,93.36
2017-11-05T04:55:30.247Z,93.36
2017-11-05T04:56:11.627Z,92.6
2017-11-05T04:56:52.053Z,93.07
2017-11-05T04:57:32.605Z,92.21
2017-11-05T04:58:14.221Z,92.79
2017-11-05T04:58:54.925Z,92.88
2017-11-05T04:59:35.436Z,92.97
2017-11-05T05:00:15.760Z,92.17
2017-11-05T05:00:56.480Z,93.12
2017-11-05T05:01:36.823Z,93.12
2017-11-05T05:02:17.225Z,93.46
2017-11-05T05:02:57.654Z,93.51
2017-11-05T05:03:38.064Z,93.65
2017-11-05T05:04:18.792Z,92.69
2017-11-05T05:04:58.943Z,92.69
2017-11-05T05:05:39.248Z,92.02
2017-11-05T05:06:19.767Z,92.02
2017-11-05T05:07:00.196Z,92.79
2017-11-05T05:07:41.083Z,92.31
2017-11-05T05:08:22.061Z,91.98
2017-11-05T05:09:02.415Z,92.02
2017-11-05T05:09:43.132Z,92.21
2017-11-05T05:10:23.473Z,92.02
2017-11-05T05:11:04.110Z,92.6
2017-11-05T05:11:45.127Z,92.41
2017-11-05T05:12:25.583Z,92.02
2017-11-05T05:13:06.148Z,92.5
2017-11-05T05:13:46.744Z,91.74
2017-11-05T05:14:27.143Z,91.64
2017-11-05T05:15:07.605Z,91.64
2017-11-05T05:15:47.896Z,91.93
2017-11-05T05:16:28.349Z,91.78
2017-11-05T05:17:08.696Z,91.26
2017-11-05T05:17:49.046Z,91.41
2017-11-05T05:18:30.585Z,91.55
2017-11-05T05:19:12.137Z,92.02
2017-11-05T05:19:52.472Z,91.6
2017-11-05T05:20:33.544Z,90.83
2017-11-05T05:21:14.030Z,90.73
2017-11-05T05:21:54.679Z,90.73
2017-11-05T05:22:35.115Z,91.21
2017-11-05T05:23:15.626Z,91.02
2017-11-05T05:23:56.095Z,91.21
2017-11-05T05:24:36.615Z,91.6
2017-11-05T05:25:16.966Z,92.07
2017-11-05T05:25:57.643Z,91.78
2017-11-05T05:26:38.035Z,91.02
2017-11-05T05:27:18.524Z,90.07
2017-11-05T05:27:58.922Z,90.07
2017-11-05T05:28:39.352Z,90.36
2017-11-05T05:29:20.446Z,90.64
2017-11-05T05:30:00.963Z,90.17
2017-11-05T05:30:41.364Z,90.64
2017-11-05T05:31:21.670Z,90.07
2017-11-05T05:32:02.109Z,90.45
2017-11-05T05:32:42.469Z,90.55
2017-11-05T05:33:22.922Z,90.26
2017-11-05T05:34:03.673Z,90.07
2017-11-05T05:34:44.987Z,90.17
2017-11-05T05:35:26.049Z,89.59
2017-11-05T05:36:06.513Z,89.88
2017-11-05T05:36:47.742Z,89.69
2017-11-05T05:37:29.026Z,89.78
2017-11-05T05:38:09.453Z,89.88
2017-11-05T05:38:49.877Z,89.69
2017-11-05T05:39:30.364Z,89.88
2017-11-05T05:40:10.732Z,90.17
2017-11-05T05:40:51.152Z,89.97
2017-11-05T05:41:31.507Z,90.55
2017-11-05T05:42:12.322Z,89.21
2017-11-05T05:42:52.573Z,89.88
2017-11-05T05:43:32.904Z,89.69
2017-11-05T05:44:13.498Z,89.5
2017-11-05T05:44:54.035Z,89.5
2017-11-05T05:45:34.412Z,89.88
2017-11-05T05:46:14.792Z,89.69
2017-11-05T05:46:55.218Z,89.59
2017-11-05T05:47:36.148Z,90.31
2017-11-05T05:48:16.620Z,90.36
2017-11-05T05:48:57.171Z,90.26
2017-11-05T05:49:37.507Z,90.12
2017-11-05T05:50:17.919Z,90.55
2017-11-05T05:50:58.372Z,90.26
2017-11-05T05:51:39.092Z,90.12
2017-11-05T05:52:19.485Z,89.45
2017-11-05T05:52:59.885Z,89.59
2017-11-05T05:53:40.436Z,89.83
2017-11-05T05:54:20.821Z,89.88
2017-11-05T05:55:01.357Z,90.73
2017-11-05T05:55:41.677Z,91.21
2017-11-05T05:56:22.184Z,90.45
2017-11-05T05:57:02.506Z,89.97
2017-11-05T05:57:42.884Z,89.59
2017-11-05T05:58:23.490Z,89.88
2017-11-05T05:59:04.008Z,89.78
2017-11-05T05:59:44.354Z,89.88
2017-11-05T06:00:25.385Z,89.5
2017-11-05T06:01:05.686Z,89.5
2017-11-05T06:01:46.279Z,89.78
2017-11-05T06:02:26.848Z,89.88
2017-11-05T06:03:07.328Z,90.26
2017-11-05T06:03:47.688Z,90.55
2017-11-05T06:04:28.460Z,90.12
2017-11-05T06:05:08.925Z,90.5
2017-11-05T06:05:49.521Z,90.59
2017-11-05T06:06:29.901Z,90.41
2017-11-05T06:07:10.274Z,90.59
2017-11-05T06:07:50.832Z,90.59
2017-11-05T06:08:31.246Z,90.83
2017-11-05T06:09:11.781Z,91.41
2017-11-05T06:09:52.268Z,90.73
2017-11-05T06:10:32.792Z,90.59
2017-11-05T06:11:13.655Z,90.45
2017-11-05T06:11:53.791Z,90.17
2017-11-05T06:12:35.006Z,90.36
2017-11-05T06:13:15.380Z,89.69
2017-11-05T06:13:56.167Z,89.02
2017-11-05T06:14:36.567Z,89.21
2017-11-05T06:15:16.886Z,89.21
2017-11-05T06:15:57.301Z,89.02
2017-11-05T06:16:37.789Z,89.02
2017-11-05T06:17:18.172Z,89.12
2017-11-05T06:17:58.592Z,88.83
2017-11-05T06:18:39.033Z,89.59
2017-11-05T06:19:19.493Z,89.02
2017-11-05T06:19:59.912Z,88.16
2017-11-05T06:20:40.247Z,88.26
2017-11-05T06:21:20.680Z,87.68
2017-11-05T06:22:01.210Z,88.35
2017-11-05T06:22:41.601Z,87.11
2017-11-05T06:23:22.193Z,87.21
2017-11-05T06:24:02.684Z,87.3
2017-11-05T06:24:43.285Z,87.74
2017-11-05T06:25:23.769Z,87.87
2017-11-05T06:26:04.175Z,87.97
2017-11-05T06:26:44.890Z,87.93
2017-11-05T06:27:25.413Z,86.98
2017-11-05T06:28:05.778Z,87.35
2017-11-05T06:28:46.163Z,87.93
2017-11-05T06:29:26.611Z,88.31
2017-11-05T06:30:07.178Z,88.12
2017-11-05T06:30:47.591Z,88.12
2017-11-05T06:31:28.252Z,87.64
2017-11-05T06:32:08.600Z,88.31
2017-11-05T06:32:49.184Z,88.12
2017-11-05T06:33:29.578Z,87.64
2017-11-05T06:34:10.230Z,88.12
2017-11-05T06:34:50.776Z,88.4
2017-11-05T06:35:31.163Z,88.59
2017-11-05T06:36:11.606Z,88.54
2017-11-05T06:36:51.952Z,88.21
2017-11-05T06:37:32.471Z,88.45
2017-11-05T06:38:12.871Z,87.54
2017-11-05T06:38:53.305Z,86.98
2017-11-05T06:39:33.664Z,87.45
2017-11-05T06:40:14.140Z,88.12
2017-11-05T06:40:54.667Z,88.21
2017-11-05T06:41:35.104Z,88.4
2017-11-05T06:42:15.563Z,88.88
2017-11-05T06:42:55.878Z,88.5
2017-11-05T06:43:36.316Z,88.21
2017-11-05T06:44:16.735Z,88.88
2017-11-05T06:44:57.182Z,89.45
2017-11-05T06:45:37.609Z,89.07
2017-11-05T06:46:17.960Z,88.78
2017-11-05T06:46:58.418Z,88.4
2017-11-05T06:47:38.734Z,88.59
2017-11-05T06:48:19.174Z,88.31
2017-11-05T06:48:59.565Z,87.93
2017-11-05T06:49:40.045Z,88.21
2017-11-05T06:50:20.455Z,88.78
2017-11-05T06:51:00.878Z,88.78
2017-11-05T06:51:41.369Z,89.07
2017-11-05T06:52:21.771Z,89.17
2017-11-05T06:53:02.258Z,89.07
2017-11-05T06:53:42.603Z,89.17
2017-11-05T06:54:23.545Z,88.07
2017-11-05T06:55:03.910Z,88.59
2017-11-05T06:55:44.356Z,89.31
2017-11-05T06:56:24.795Z,88.21
2017-11-05T06:57:05.134Z,88.26
2017-11-05T06:57:46.566Z,88.21
2017-11-05T06:58:27.022Z,87.68
2017-11-05T06:59:07.824Z,87.49
2017-11-05T06:59:48.223Z,87.54
2017-11-05T07:00:28.781Z,87.74
2017-11-05T07:01:10.074Z,87.68
2017-11-05T07:01:50.537Z,87.21
2017-11-05T07:02:31.021Z,87.78
2017-11-05T07:03:11.469Z,87.3
2017-11-05T07:03:51.897Z,87.3
2017-11-05T07:04:32.264Z,87.49
2017-11-05T07:05:12.670Z,87.74
2017-11-05T07:05:53.068Z,87.35
2017-11-05T07:06:33.532Z,87.49
2017-11-05T07:07:13.857Z,87.35
2017-11-05T07:07:54.326Z,87.16
2017-11-05T07:08:34.704Z,87.45
2017-11-05T07:09:15.100Z,87.83
2017-11-05T07:09:55.611Z,88.07
2017-11-05T07:10:36.098Z,87.3
2017-11-05T07:11:16.452Z,87.35
2017-11-05T07:11:56.813Z,87.26
2017-11-05T07:12:37.295Z,87.97
2017-11-05T07:13:17.835Z,87.4
2017-11-05T07:13:58.493Z,87.21
2017-11-05T07:14:39.067Z,87.4
2017-11-05T07:15:19.589Z,87.21
2017-11-05T07:16:00.631Z,87.11
2017-11-05T07:16:41.030Z,87.21
2017-11-05T07:17:21.590Z,86.82
2017-11-05T07:18:01.979Z,87.3
2017-11-05T07:18:42.468Z,86.92
2017-11-05T07:19:23.013Z,87.59
2017-11-05T07:20:03.510Z,87.11
2017-11-05T07:20:44.569Z,86.3
2017-11-05T07:21:24.923Z,86.54
2017-11-05T07:22:05.368Z,86.54
2017-11-05T07:22:45.795Z,87.3
2017-11-05T07:23:26.835Z,86.78
2017-11-05T07:24:07.179Z,86.73
2017-11-05T07:24:47.783Z,87.21
2017-11-05T07:25:28.094Z,87.16
2017-11-05T07:26:08.579Z,87.11
2017-11-05T07:26:49.084Z,86.73
2017-11-05T07:27:29.531Z,87.16
2017-11-05T07:28:09.927Z,87.07
2017-11-05T07:28:50.358Z,87.45
2017-11-05T07:29:30.808Z,87.64
2017-11-05T07:30:11.408Z,87.4
2017-11-05T07:30:51.849Z,87.4
2017-11-05T07:31:32.334Z,87.4
2017-11-05T07:32:12.658Z,87.3
2017-11-05T07:32:53.167Z,87.26
2017-11-05T07:33:33.496Z,87.4
2017-11-05T07:34:14.043Z,86.73
2017-11-05T07:34:54.428Z,87.59
2017-11-05T07:35:34.857Z,87.21
2017-11-05T07:36:15.270Z,87.16
2017-11-05T07:36:55.789Z,87.26
2017-11-05T07:37:36.255Z,87.11
2017-11-05T07:38:16.639Z,86.78
2017-11-05T07:38:57.089Z,87.11
2017-11-05T07:39:38.830Z,87.3
2017-11-05T07:40:19.127Z,86.69
2017-11-05T07:40:59.501Z,87.21
2017-11-05T07:41:39.944Z,87.49
2017-11-05T07:42:20.363Z,87.78
2017-11-05T07:43:00.964Z,86.82
2017-11-05T07:43:41.438Z,87.49
2017-11-05T07:44:21.933Z,87.4
2017-11-05T07:45:02.840Z,85.39
2017-11-05T07:45:43.379Z,85.68
2017-11-05T07:46:23.789Z,85.68
2017-11-05T07:47:05.194Z,85.77
2017-11-05T07:47:45.911Z,85.11
2017-11-05T07:48:26.364Z,84.72
2017-11-05T07:49:06.847Z,85.73
2017-11-05T07:49:47.236Z,85.54
2017-11-05T07:50:27.707Z,84.78
2017-11-05T07:51:08.376Z,85.45
2017-11-05T07:51:48.636Z,85.83
2017-11-05T07:52:29.079Z,85.73
2017-11-05T07:53:09.961Z,85.6
2017-11-05T07:53:50.726Z,86.74
2017-11-05T07:54:31.440Z,87.5
2017-11-05T07:55:11.902Z,87.88
2017-11-05T07:55:52.374Z,87.5
2017-11-05T07:56:32.846Z,88.55
2017-11-05T07:57:13.211Z,88.07
2017-11-05T07:57:53.898Z,88.36
2017-11-05T07:58:34.186Z,89.12
2017-11-05T07:59:14.563Z,88.74
2017-11-05T07:59:54.969Z,89.03
2017-11-05T08:00:35.464Z,89.4
2017-11-05T08:01:15.941Z,89.22
2017-11-05T08:01:57.425Z,89.4
2017-11-05T08:02:37.868Z,88.93
2017-11-05T08:03:19.508Z,88.26
2017-11-05T08:04:00.021Z,88.26
2017-11-05T08:04:40.420Z,88.84
2017-11-05T08:05:20.842Z,88.84
2017-11-05T08:06:01.219Z,88.74
2017-11-05T08:06:41.772Z,88.74
2017-11-05T08:07:22.143Z,89.03
2017-11-05T08:08:02.645Z,88.64
2017-11-05T08:08:43.437Z,88.26
2017-11-05T08:09:23.784Z,89.03
2017-11-05T08:10:04.315Z,88.64
2017-11-05T08:10:44.686Z,88.26
2017-11-05T08:14:13.754Z,87.79
2017-11-05T08:15:06.618Z,88.07
2017-11-05T08:15:59.889Z,87.98
2017-11-05T08:16:52.109Z,88.93
2017-11-05T08:17:44.051Z,88.74
2017-11-05T08:18:36.945Z,89.12
2017-11-05T08:19:31.746Z,88.55
2017-11-05T08:20:24.565Z,88.55
2017-11-05T08:21:18.556Z,88.26
2017-11-05T08:22:11.361Z,88.93
2017-11-05T08:23:03.773Z,88.26
2017-11-05T08:23:57.776Z,88.4
2017-11-05T08:24:51.626Z,87.4
2017-11-05T08:25:46.209Z,87.26
2017-11-05T08:26:38.198Z,87.74
2017-11-05T08:27:30.244Z,88.12
2017-11-05T08:28:22.557Z,87.45
2017-11-05T08:29:15.180Z,87.93
2017-11-05T08:30:07.193Z,87.35
2017-11-05T08:30:59.293Z,87.45
2017-11-05T08:31:51.438Z,87.07
2017-11-05T08:32:44.715Z,86.98
2017-11-05T08:33:37.839Z,87.26
2017-11-05T08:34:30.830Z,87.26
2017-11-05T08:35:24.688Z,87.16
2017-11-05T08:36:17.295Z,86.4
2017-11-05T08:37:09.968Z,86.88
2017-11-05T08:38:02.552Z,86.21
2017-11-05T08:38:55.007Z,87.45
2017-11-05T08:39:48.345Z,87.16
2017-11-05T08:40:41.580Z,84.97
2017-11-05T08:41:34.154Z,86.4
2017-11-05T08:42:27.752Z,86.11
2017-11-05T08:43:20.184Z,86.21
2017-11-05T08:44:12.571Z,86.69
2017-11-05T08:45:10.398Z,85.64
2017-11-05T08:46:06.340Z,85.25
2017-11-05T08:47:04.083Z,85.83
2017-11-05T08:47:56.092Z,85.25
2017-11-05T08:48:48.724Z,84.97
2017-11-05T08:49:40.666Z,85.73
2017-11-05T08:50:33.289Z,86.02
2017-11-05T08:51:26.205Z,85.06
2017-11-05T08:52:18.625Z,85.16
2017-11-05T08:53:12.577Z,83.92
2017-11-05T08:54:05.149Z,84.97
2017-11-05T08:54:57.257Z,84.82
2017-11-05T08:55:50.128Z,84.88
2017-11-05T08:56:42.200Z,83.92
2017-11-05T08:57:34.542Z,83.92
2017-11-05T08:58:27.144Z,83.73
2017-11-05T08:59:19.375Z,84.11
2017-11-05T09:00:11.573Z,83.16
2017-11-05T09:01:04.329Z,83.54
2017-11-05T09:01:56.466Z,84.01
2017-11-05T09:02:49.000Z,84.01
2017-11-05T09:03:41.127Z,84.3
2017-11-05T09:04:34.114Z,84.11
2017-11-05T09:05:27.542Z,83.64
2017-11-05T09:07:53.587Z,83.16
2017-11-05T09:08:46.033Z,82.97
2017-11-05T09:09:39.090Z,83.48
2017-11-05T09:10:31.628Z,82.63
2017-11-05T09:11:24.424Z,82.53
2017-11-05T09:12:16.461Z,82.43
2017-11-05T09:13:09.382Z,80.91
2017-11-05T09:14:02.214Z,81.86
2017-11-05T09:14:55.129Z,81.01
2017-11-05T09:15:47.205Z,81.2
2017-11-05T09:16:41.049Z,79.86
2017-11-05T09:17:34.096Z,80.62
2017-11-05T09:18:26.477Z,80.33
2017-11-05T09:19:19.989Z,80.91
2017-11-05T09:20:13.759Z,80.24
2017-11-05T09:21:06.086Z,80.43
2017-11-05T09:21:59.306Z,80.53
2017-11-05T09:22:51.701Z,80.24
2017-11-05T09:23:44.019Z,79.86
2017-11-05T09:24:37.313Z,80.33
2017-11-05T09:25:29.306Z,79.19
2017-11-05T09:26:21.098Z,80.33
2017-11-05T09:27:14.698Z,80.91
2017-11-05T09:28:06.972Z,80.43
2017-11-05T09:28:59.662Z,78.52
2017-11-05T09:29:52.716Z,80.33
2017-11-05T09:30:45.106Z,79.48
2017-11-05T09:31:37.459Z,79.28
2017-11-05T09:32:29.584Z,79.77
2017-11-05T09:33:21.506Z,79.28
2017-11-05T09:35:54.117Z,79.1
2017-11-05T09:36:47.364Z,79.77
2017-11-05T09:37:40.253Z,78.52
2017-11-05T09:38:32.329Z,78.91
2017-11-05T09:39:24.654Z,79.19
2017-11-05T09:40:17.182Z,79.67
2017-11-05T09:41:09.426Z,80.05
2017-11-05T09:42:01.747Z,79.48
2017-11-05T09:42:54.163Z,80.15
2017-11-05T09:43:47.144Z,80.38
2017-11-05T09:44:39.270Z,79.67
2017-11-05T09:45:32.464Z,79.43
2017-11-05T09:46:25.754Z,79.9
2017-11-05T09:47:16.288Z,78.75